Time;durP1;ratioP1;P1;durP2;ratioP2;P2;SDS_P1;SDS_P2;PMS_P1;PMS_P2;Temp;Humidity;BMP_temperature;BMP_pressure;BME280_temperature;BME280_humidity;BME280_pressure;Samples;Min_cycle;Max_cycle;Signal;HPM_P1;HPM_P2
2023/09/20 00:00:52;;;;;;;8.70;6.50;;;23.70;96.70;;;;;;5003647;28;20462;-63
2023/09/20 00:03:19;;;;;;;6.73;6.00;;;23.70;96.80;;;;;;5005419;28;20870;-63
2023/09/20 00:05:47;;;;;;;6.63;5.83;;;23.60;96.80;;;;;;5000159;28;20463;-63
2023/09/20 00:08:14;;;;;;;8.97;6.03;;;23.60;96.80;;;;;;5004058;28;20476;-63
2023/09/20 00:10:41;;;;;;;6.53;5.90;;;23.60;96.80;;;;;;5005476;28;20463;-63
2023/09/20 00:13:10;;;;;;;9.37;6.00;;;23.60;96.80;;;;;;5004284;28;20847;-62
2023/09/20 00:15:36;;;;;;;6.93;5.57;;;23.60;96.80;;;;;;4997467;28;20874;-62
2023/09/20 00:18:05;;;;;;;6.90;6.00;;;23.60;96.90;;;;;;5003108;28;20466;-63
2023/09/20 00:20:32;;;;;;;7.50;6.03;;;23.60;96.90;;;;;;5002099;28;20516;-63
2023/09/20 00:23:00;;;;;;;9.63;6.33;;;23.60;96.90;;;;;;5003426;28;20810;-63
2023/09/20 00:25:27;;;;;;;7.67;5.60;;;23.60;96.90;;;;;;5001055;28;20467;-63
2023/09/20 00:27:54;;;;;;;7.57;6.07;;;23.60;96.90;;;;;;5000592;28;20491;-63
2023/09/20 00:30:21;;;;;;;5.00;4.47;;;23.60;97.00;;;;;;5002618;28;20478;-63
2023/09/20 00:32:48;;;;;;;7.80;5.87;;;23.60;97.00;;;;;;5003541;28;20458;-63
2023/09/20 00:35:18;;;;;;;9.60;6.63;;;23.50;97.00;;;;;;5001200;28;20497;-63
2023/09/20 00:37:46;;;;;;;7.63;5.63;;;23.60;97.10;;;;;;5003260;28;20541;-63
2023/09/20 00:40:18;;;;;;;9.70;5.50;;;23.50;97.00;;;;;;4998176;28;20835;-63
2023/09/20 00:42:46;;;;;;;7.57;5.63;;;23.50;97.00;;;;;;4998202;28;20581;-63
2023/09/20 00:45:15;;;;;;;6.97;5.80;;;23.50;97.10;;;;;;4997960;28;20466;-63
2023/09/20 00:47:44;;;;;;;7.63;5.93;;;23.50;97.10;;;;;;5000014;28;20452;-63
2023/09/20 00:50:12;;;;;;;6.70;4.93;;;23.50;97.10;;;;;;5001194;28;20797;-63
2023/09/20 00:52:45;;;;;;;5.37;4.83;;;23.50;97.10;;;;;;5003802;28;20461;-63
2023/09/20 00:55:16;;;;;;;6.47;5.80;;;23.50;97.20;;;;;;5001071;28;20456;-63
2023/09/20 00:57:45;;;;;;;8.23;5.70;;;23.50;97.20;;;;;;5002808;28;20989;-63
2023/09/20 01:00:20;;;;;;;5.80;5.00;;;23.50;97.20;;;;;;5000924;28;20480;-63
2023/09/20 01:02:49;;;;;;;11.20;6.10;;;23.50;97.20;;;;;;5017560;22;20526;-58
2023/09/20 01:05:21;;;;;;;5.67;4.77;;;23.50;97.20;;;;;;4964117;28;20576;-58
2023/09/20 01:07:50;;;;;;;6.83;5.67;;;23.50;97.20;;;;;;4961416;28;20467;-58
2023/09/20 01:10:17;;;;;;;9.20;6.30;;;23.50;97.20;;;;;;4967590;28;20493;-57
2023/09/20 01:12:45;;;;;;;6.20;5.57;;;23.50;97.30;;;;;;4971033;28;20558;-55
2023/09/20 01:15:11;;;;;;;9.33;6.00;;;23.50;97.30;;;;;;4963822;28;20830;-58
2023/09/20 01:17:45;;;;;;;5.60;5.00;;;23.40;97.30;;;;;;4971708;28;20464;-57
2023/09/20 01:20:18;;;;;;;6.03;4.97;;;23.50;97.30;;;;;;4969085;28;20527;-58
2023/09/20 01:22:47;;;;;;;7.40;5.10;;;23.50;97.40;;;;;;4968382;28;20553;-57
2023/09/20 01:25:21;;;;;;;6.47;5.80;;;23.50;97.30;;;;;;4965458;28;20493;-57
2023/09/20 01:27:48;;;;;;;7.13;5.23;;;23.40;97.30;;;;;;4971077;28;20948;-58
2023/09/20 01:30:15;;;;;;;5.50;5.00;;;23.40;97.30;;;;;;4964208;28;20521;-58
2023/09/20 01:32:42;;;;;;;5.63;5.13;;;23.50;97.40;;;;;;4967973;28;20451;-55
2023/09/20 01:35:10;;;;;;;8.13;5.60;;;23.40;97.40;;;;;;4967205;28;20504;-58
2023/09/20 01:37:36;;;;;;;4.90;4.37;;;23.50;97.50;;;;;;4970868;28;20472;-59
2023/09/20 01:40:14;;;;;;;5.13;4.63;;;23.40;97.40;;;;;;4967760;28;20475;-52
2023/09/20 01:42:42;;;;;;;7.30;5.53;;;23.40;97.40;;;;;;4970545;28;20539;-58
2023/09/20 01:45:14;;;;;;;5.40;4.83;;;23.40;97.50;;;;;;4967006;28;20989;-55
2023/09/20 01:47:42;;;;;;;6.37;5.53;;;23.40;97.50;;;;;;4970508;28;20973;-56
2023/09/20 01:50:10;;;;;;;6.37;5.00;;;23.40;97.50;;;;;;4968166;28;20469;-57
2023/09/20 01:52:37;;;;;;;5.60;4.83;;;23.40;97.50;;;;;;4969764;28;20524;-56
2023/09/20 01:55:09;;;;;;;6.00;5.00;;;23.40;97.50;;;;;;4969583;28;20570;-57
2023/09/20 01:57:36;;;;;;;5.80;4.30;;;23.40;97.60;;;;;;4969394;28;20456;-51
2023/09/20 02:00:16;;;;;;;7.03;5.73;;;23.40;97.50;;;;;;4959639;28;20571;-59
2023/09/20 02:02:44;;;;;;;6.30;5.47;;;23.30;97.50;;;;;;4968246;28;20462;-55
2023/09/20 02:05:14;;;;;;;8.50;5.57;;;23.30;97.50;;;;;;4968603;28;20513;-56
2023/09/20 02:07:41;;;;;;;6.13;5.10;;;23.40;97.60;;;;;;4969495;28;20548;-58
2023/09/20 02:10:09;;;;;;;6.00;5.17;;;23.40;97.60;;;;;;4967383;28;21046;-59
2023/09/20 02:12:36;;;;;;;6.97;5.00;;;23.30;97.60;;;;;;4968883;28;21387;-55
2023/09/20 02:15:07;;;;;;;5.57;4.90;;;23.30;97.60;;;;;;4967710;28;21465;-58
2023/09/20 02:17:35;;;;;;;4.63;4.23;;;23.30;97.60;;;;;;4967935;28;20453;-59
2023/09/20 02:20:08;;;;;;;6.40;4.77;;;23.30;97.70;;;;;;4969428;28;20495;-58
2023/09/20 02:22:36;;;;;;;8.90;5.00;;;23.30;97.70;;;;;;4968130;28;20456;-57
2023/09/20 02:25:05;;;;;;;5.50;4.63;;;23.30;97.70;;;;;;4971543;28;20457;-54
2023/09/20 02:27:34;;;;;;;5.33;4.77;;;23.30;97.70;;;;;;4972110;28;20958;-55
2023/09/20 02:30:00;;;;;;;4.57;3.73;;;23.30;97.80;;;;;;4966584;28;20465;-56
2023/09/20 02:32:27;;;;;;;6.33;4.50;;;23.30;97.70;;;;;;4970510;28;21292;-57
2023/09/20 02:34:54;;;;;;;6.60;4.53;;;23.30;97.80;;;;;;4969600;28;20691;-58
2023/09/20 02:37:22;;;;;;;7.90;4.70;;;23.30;97.80;;;;;;4966206;28;20456;-53
2023/09/20 02:39:49;;;;;;;6.03;5.00;;;23.30;97.80;;;;;;4970316;28;20622;-59
2023/09/20 02:42:17;;;;;;;5.60;4.63;;;23.30;97.80;;;;;;4971796;28;20464;-55
2023/09/20 02:44:47;;;;;;;7.93;4.67;;;23.30;97.80;;;;;;4969015;28;20799;-56
2023/09/20 02:47:13;;;;;;;4.90;4.40;;;23.30;97.80;;;;;;4967674;28;20473;-58
2023/09/20 02:49:41;;;;;;;5.73;4.77;;;23.20;97.70;;;;;;4967975;28;20543;-54
2023/09/20 02:52:08;;;;;;;5.97;5.17;;;23.30;97.90;;;;;;4968073;28;21254;-58
2023/09/20 02:54:35;;;;;;;4.67;4.20;;;23.30;97.90;;;;;;4969076;28;20464;-56
2023/09/20 02:57:01;;;;;;;5.77;5.03;;;23.30;97.90;;;;;;4962931;28;20459;-57
2023/09/20 02:59:28;;;;;;;6.53;5.33;;;23.20;97.80;;;;;;4966508;28;20465;-56
2023/09/20 03:01:56;;;;;;;4.83;4.30;;;23.30;97.90;;;;;;4967249;28;21562;-56
2023/09/20 03:04:23;;;;;;;4.70;4.23;;;23.30;97.90;;;;;;4969682;28;20547;-58
2023/09/20 03:06:50;;;;;;;5.37;4.83;;;23.30;98.00;;;;;;4964908;28;20467;-57
2023/09/20 03:09:18;;;;;;;4.63;4.07;;;23.20;97.90;;;;;;4967236;28;20456;-58
2023/09/20 03:11:45;;;;;;;5.30;4.80;;;23.20;97.90;;;;;;4967070;28;20464;-58
2023/09/20 03:14:13;;;;;;;5.60;4.60;;;23.20;98.00;;;;;;4969143;28;20465;-60
2023/09/20 03:16:43;;;;;;;7.03;4.23;;;23.20;98.00;;;;;;4966905;28;20457;-54
2023/09/20 03:19:14;;;;;;;4.93;3.80;;;23.20;98.00;;;;;;4968017;28;20482;-54
2023/09/20 03:21:41;;;;;;;4.97;4.17;;;23.20;98.00;;;;;;4966115;28;20469;-57
2023/09/20 03:24:08;;;;;;;6.77;4.20;;;23.20;98.00;;;;;;4968260;28;20466;-57
2023/09/20 03:26:36;;;;;;;5.40;4.57;;;23.20;98.00;;;;;;4969865;28;20881;-57
2023/09/20 03:29:03;;;;;;;5.90;4.07;;;23.20;98.00;;;;;;4968119;28;20460;-57
2023/09/20 03:31:31;;;;;;;6.10;4.63;;;23.20;98.10;;;;;;4964184;28;20460;-59
2023/09/20 03:33:59;;;;;;;5.17;4.33;;;23.20;98.10;;;;;;4967245;28;20489;-60
2023/09/20 03:36:27;;;;;;;4.83;4.20;;;23.20;98.10;;;;;;4964427;28;20471;-59
2023/09/20 03:38:57;;;;;;;4.90;3.97;;;23.20;98.10;;;;;;4965422;28;21320;-56
2023/09/20 03:41:24;;;;;;;5.53;4.60;;;23.20;98.10;;;;;;4968334;28;20491;-59
2023/09/20 03:43:51;;;;;;;5.50;4.03;;;23.20;98.20;;;;;;4967874;28;21043;-55
2023/09/20 03:46:18;;;;;;;5.10;4.30;;;23.20;98.20;;;;;;4963570;28;20478;-56
2023/09/20 03:48:44;;;;;;;5.33;4.23;;;23.20;98.20;;;;;;4967630;28;20460;-58
2023/09/20 03:51:15;;;;;;;5.17;4.43;;;23.20;98.20;;;;;;4964684;28;20472;-58
2023/09/20 03:53:43;;;;;;;4.50;4.10;;;23.20;98.20;;;;;;4969721;28;20456;-57
2023/09/20 03:56:11;;;;;;;4.60;4.20;;;23.10;98.20;;;;;;4962673;28;20464;-56
2023/09/20 03:58:38;;;;;;;4.53;4.00;;;23.10;98.20;;;;;;4968472;28;20474;-58
2023/09/20 04:01:05;;;;;;;5.00;4.47;;;23.20;98.20;;;;;;4964690;28;20479;-58
2023/09/20 04:03:34;;;;;;;4.83;4.30;;;23.20;98.30;;;;;;4968855;28;20475;-59
2023/09/20 04:06:01;;;;;;;4.43;3.73;;;23.20;98.30;;;;;;4964461;28;20515;-58
2023/09/20 04:08:28;;;;;;;6.00;4.37;;;23.20;98.30;;;;;;4967729;28;20465;-55
2023/09/20 04:10:56;;;;;;;4.80;4.23;;;23.20;98.30;;;;;;4968406;28;20479;-59
2023/09/20 04:13:23;;;;;;;4.53;3.70;;;23.20;98.30;;;;;;4966848;28;20473;-58
2023/09/20 04:15:50;;;;;;;6.70;4.40;;;23.20;98.40;;;;;;4965004;28;20843;-58
2023/09/20 04:18:17;;;;;;;3.97;3.57;;;23.10;98.30;;;;;;4969255;28;20464;-55
2023/09/20 04:20:46;;;;;;;4.53;4.00;;;23.20;98.40;;;;;;4966309;28;20486;-58
2023/09/20 04:23:13;;;;;;;5.67;4.90;;;23.10;98.40;;;;;;4967811;28;20472;-58
2023/09/20 04:25:39;;;;;;;3.90;3.60;;;23.20;98.40;;;;;;4968420;28;20464;-56
2023/09/20 04:28:09;;;;;;;4.10;3.37;;;23.10;98.40;;;;;;4968163;28;20507;-58
2023/09/20 04:30:38;;;;;;;4.90;3.90;;;23.10;98.40;;;;;;4959889;28;20468;-56
2023/09/20 04:33:06;;;;;;;5.13;4.00;;;23.10;98.40;;;;;;4969151;28;20903;-57
2023/09/20 04:35:34;;;;;;;4.40;3.83;;;23.10;98.40;;;;;;4967693;28;20506;-55
2023/09/20 04:38:01;;;;;;;4.80;3.83;;;23.10;98.40;;;;;;4967668;28;20464;-52
2023/09/20 04:40:28;;;;;;;4.63;4.23;;;23.10;98.50;;;;;;4967732;28;20481;-57
2023/09/20 04:42:54;;;;;;;3.93;3.60;;;23.10;98.50;;;;;;4970064;28;20475;-58
2023/09/20 04:45:22;;;;;;;4.47;3.60;;;23.10;98.60;;;;;;4968642;28;20475;-59
2023/09/20 04:47:50;;;;;;;4.10;3.70;;;23.10;98.50;;;;;;4969349;28;20475;-58
2023/09/20 04:50:17;;;;;;;4.33;3.60;;;23.10;98.60;;;;;;4968374;28;20491;-56
2023/09/20 04:52:45;;;;;;;4.53;3.97;;;23.10;98.50;;;;;;4972687;28;20461;-58
2023/09/20 04:55:11;;;;;;;4.40;4.00;;;23.10;98.60;;;;;;4967032;28;20473;-59
2023/09/20 04:57:38;;;;;;;4.80;4.40;;;23.10;98.60;;;;;;4972534;28;20979;-58
2023/09/20 05:00:15;;;;;;;4.20;3.73;;;23.10;98.60;;;;;;4970427;28;20456;-60
2023/09/20 05:02:44;;;;;;;4.87;4.37;;;23.10;98.60;;;;;;4972866;28;20497;-57
2023/09/20 05:05:10;;;;;;;3.70;3.40;;;23.10;98.60;;;;;;4969772;28;21682;-57
2023/09/20 05:07:37;;;;;;;4.17;3.77;;;23.10;98.60;;;;;;4973695;28;20500;-56
2023/09/20 05:10:06;;;;;;;3.13;2.83;;;23.10;98.60;;;;;;4971210;28;20462;-53
2023/09/20 05:12:32;;;;;;;3.80;3.40;;;23.10;98.70;;;;;;4965564;28;20468;-55
2023/09/20 05:14:59;;;;;;;4.80;3.90;;;23.10;98.70;;;;;;4966161;28;20819;-57
2023/09/20 05:17:27;;;;;;;3.63;3.33;;;23.10;98.70;;;;;;4967569;28;20456;-57
2023/09/20 05:19:58;;;;;;;4.73;3.77;;;23.10;98.70;;;;;;4967635;28;20452;-59
2023/09/20 05:22:24;;;;;;;3.73;3.33;;;23.10;98.70;;;;;;4970987;28;20479;-58
2023/09/20 05:24:51;;;;;;;4.87;2.93;;;23.00;98.70;;;;;;4967207;28;20473;-59
2023/09/20 05:27:18;;;;;;;4.83;4.33;;;23.10;98.70;;;;;;4970368;28;21366;-57
2023/09/20 05:29:45;;;;;;;4.20;3.73;;;23.10;98.70;;;;;;4969964;28;20456;-54
2023/09/20 05:32:11;;;;;;;4.67;4.07;;;23.10;98.70;;;;;;4969692;28;21376;-56
2023/09/20 05:34:39;;;;;;;4.07;3.67;;;23.10;98.80;;;;;;4970852;28;20467;-55
2023/09/20 05:37:07;;;;;;;3.97;3.57;;;23.00;98.70;;;;;;4969687;28;21259;-56
2023/09/20 05:39:35;;;;;;;4.47;3.90;;;23.00;98.80;;;;;;4970379;28;21018;-56
2023/09/20 05:42:03;;;;;;;4.40;3.50;;;23.00;98.80;;;;;;4967358;28;20845;-58
2023/09/20 05:44:31;;;;;;;4.73;3.70;;;23.00;98.80;;;;;;4967861;28;20456;-58
2023/09/20 05:46:58;;;;;;;4.53;3.80;;;23.00;98.80;;;;;;4957299;28;20464;-58
2023/09/20 05:49:25;;;;;;;3.67;3.37;;;23.00;98.80;;;;;;4968382;28;20461;-59
2023/09/20 05:51:52;;;;;;;3.50;3.20;;;23.00;98.80;;;;;;4967384;28;20464;-60
2023/09/20 05:54:20;;;;;;;4.00;3.63;;;23.00;98.80;;;;;;4970615;28;20468;-55
2023/09/20 05:56:47;;;;;;;3.90;3.50;;;23.10;98.90;;;;;;4970481;28;20468;-56
2023/09/20 05:59:14;;;;;;;5.13;3.67;;;23.00;98.90;;;;;;4970394;28;21345;-54
2023/09/20 06:01:40;;;;;;;4.23;3.83;;;23.00;98.90;;;;;;4964879;28;20609;-57
2023/09/20 06:04:09;;;;;;;4.00;3.60;;;23.00;98.90;;;;;;4967574;28;20590;-56
2023/09/20 06:06:36;;;;;;;3.40;3.10;;;23.00;98.90;;;;;;4970166;28;20586;-53
2023/09/20 06:09:04;;;;;;;4.20;3.80;;;23.00;98.90;;;;;;4968869;28;20466;-58
2023/09/20 06:11:32;;;;;;;3.43;3.13;;;23.00;99.00;;;;;;4970691;28;20469;-57
2023/09/20 06:13:59;;;;;;;4.70;3.63;;;23.00;99.00;;;;;;4970340;28;20464;-55
2023/09/20 06:16:26;;;;;;;3.87;3.47;;;23.00;99.00;;;;;;4969420;28;20829;-56
2023/09/20 06:18:53;;;;;;;4.60;3.87;;;23.00;99.00;;;;;;4968266;28;20936;-58
2023/09/20 06:21:19;;;;;;;4.50;3.10;;;23.00;99.00;;;;;;4969484;28;20563;-55
2023/09/20 06:23:46;;;;;;;3.87;3.00;;;23.00;99.10;;;;;;4969204;28;20460;-57
2023/09/20 06:26:13;;;;;;;3.47;3.17;;;23.00;99.10;;;;;;4966724;28;20464;-55
2023/09/20 06:28:42;;;;;;;3.30;3.00;;;23.00;99.10;;;;;;4966541;28;20832;-55
2023/09/20 06:31:12;;;;;;;4.97;4.07;;;23.00;99.10;;;;;;4964092;28;20525;-56
2023/09/20 06:33:39;;;;;;;4.53;3.83;;;23.00;99.10;;;;;;4968062;28;20451;-56
2023/09/20 06:36:06;;;;;;;3.97;3.57;;;23.00;99.10;;;;;;4965334;28;20464;-55
2023/09/20 06:38:34;;;;;;;3.13;2.70;;;23.00;99.20;;;;;;4968603;28;20460;-57
2023/09/20 06:41:01;;;;;;;3.53;3.23;;;23.00;99.20;;;;;;4969245;28;20487;-54
2023/09/20 06:43:28;;;;;;;3.37;3.07;;;23.00;99.20;;;;;;4969813;28;20471;-55
2023/09/20 06:45:57;;;;;;;3.13;2.80;;;23.00;99.20;;;;;;4966925;28;20995;-55
2023/09/20 06:48:24;;;;;;;3.60;3.30;;;23.00;99.20;;;;;;4965091;28;20468;-54
2023/09/20 06:50:52;;;;;;;4.37;3.40;;;23.00;99.20;;;;;;4965362;28;20472;-58
2023/09/20 06:53:19;;;;;;;4.40;3.67;;;23.10;99.30;;;;;;4970973;28;20460;-54
2023/09/20 06:55:47;;;;;;;3.20;2.47;;;23.10;99.30;;;;;;4969984;28;20475;-56
2023/09/20 06:58:14;;;;;;;4.93;3.10;;;23.10;99.30;;;;;;4965954;28;20549;-57
2023/09/20 07:00:41;;;;;;;3.40;3.10;;;23.00;99.30;;;;;;4966872;28;20460;-54
2023/09/20 07:03:10;;;;;;;3.17;2.87;;;23.10;99.30;;;;;;4968397;28;21066;-57
2023/09/20 07:05:36;;;;;;;3.90;2.97;;;23.10;99.30;;;;;;4967217;28;20466;-59
2023/09/20 07:08:04;;;;;;;2.97;2.67;;;23.00;99.20;;;;;;4968816;28;20463;-54
2023/09/20 07:10:32;;;;;;;4.40;2.87;;;23.00;99.20;;;;;;4967910;28;21167;-57
2023/09/20 07:13:00;;;;;;;3.93;2.93;;;23.00;99.60;;;;;;4968590;28;20451;-56
2023/09/20 07:15:28;;;;;;;5.13;3.33;;;23.00;99.20;;;;;;4960188;28;21085;-56
2023/09/20 07:18:11;;;;;;;4.60;3.20;;;23.00;99.20;;;;;;4968808;28;20503;-57
2023/09/20 07:20:40;;;;;;;3.50;3.20;;;23.00;99.20;;;;;;4966317;28;20488;-60
2023/09/20 07:23:08;;;;;;;2.80;2.50;;;23.00;99.20;;;;;;4969994;28;20639;-60
2023/09/20 07:25:36;;;;;;;3.07;2.77;;;23.00;99.30;;;;;;4959100;28;20472;-57
2023/09/20 07:28:04;;;;;;;4.10;3.47;;;23.00;99.30;;;;;;4957641;28;20467;-55
2023/09/20 07:30:35;;;;;;;5.73;3.00;;;23.00;99.30;;;;;;4965814;28;20769;-60
2023/09/20 07:33:02;;;;;;;6.90;2.60;;;23.00;99.40;;;;;;4964439;28;20606;-58
2023/09/20 07:35:37;;;;;;;4.73;2.63;;;23.00;99.40;;;;;;4965600;28;20476;-60
2023/09/20 07:38:12;;;;;;;6.83;3.47;;;23.00;99.40;;;;;;4967166;28;20454;-53
2023/09/20 07:40:40;;;;;;;14.90;2.83;;;23.00;99.50;;;;;;4969657;28;20551;-59
2023/09/20 07:43:07;;;;;;;8.57;4.30;;;23.10;99.50;;;;;;4963639;28;20567;-54
2023/09/20 07:45:37;;;;;;;4.87;3.00;;;23.00;99.40;;;;;;4964297;28;20465;-57
2023/09/20 07:48:11;;;;;;;2.90;2.60;;;23.00;99.40;;;;;;4956334;28;20829;-58
2023/09/20 07:50:40;;;;;;;11.50;3.33;;;23.00;99.40;;;;;;4957303;28;20467;-56
2023/09/20 07:53:10;;;;;;;6.07;2.40;;;22.90;99.30;;;;;;4967312;28;20470;-57
2023/09/20 07:55:43;;;;;;;6.63;2.47;;;23.00;99.10;;;;;;4964139;28;20463;-55
2023/09/20 07:58:10;;;;;;;5.67;2.60;;;23.00;98.90;;;;;;4963898;28;20459;-58
2023/09/20 08:00:44;;;;;;;3.43;2.60;;;22.90;98.90;;;;;;4954269;28;20475;-56
2023/09/20 08:03:11;;;;;;;2.93;1.53;;;22.90;98.80;;;;;;4961350;28;20487;-58
2023/09/20 08:05:38;;;;;;;2.90;2.00;;;22.90;98.80;;;;;;4960082;28;20464;-59
2023/09/20 08:08:07;;;;;;;4.30;1.80;;;22.90;98.80;;;;;;4962893;28;20460;-58
2023/09/20 08:10:35;;;;;;;5.70;1.70;;;22.90;98.70;;;;;;4967070;28;20472;-60
2023/09/20 08:13:03;;;;;;;3.00;1.80;;;22.90;98.80;;;;;;4956114;28;21092;-57
2023/09/20 08:15:32;;;;;;;2.17;1.60;;;22.90;98.80;;;;;;4964422;28;20452;-58
2023/09/20 08:20:43;;;;;;;2.97;1.83;;;22.90;98.80;;;;;;4961104;28;20440;-58
2023/09/20 09:01:46;;;;;;;4.70;2.00;;;22.90;99.20;;;;;;4966029;28;20530;-57
2023/09/20 09:04:16;;;;;;;2.10;1.57;;;22.80;99.10;;;;;;4967674;28;20478;-57
2023/09/20 09:06:43;;;;;;;2.23;1.70;;;22.80;99.00;;;;;;4966987;28;20464;-59
2023/09/20 09:09:10;;;;;;;2.83;1.80;;;22.80;98.90;;;;;;4962655;28;20464;-57
2023/09/20 09:11:38;;;;;;;3.47;1.77;;;22.80;98.90;;;;;;4968527;28;20468;-58
2023/09/20 09:14:06;;;;;;;2.60;1.87;;;22.80;98.90;;;;;;4964906;28;21686;-54
2023/09/20 09:16:34;;;;;;;3.93;2.00;;;22.80;98.90;;;;;;4962983;28;20456;-58
2023/09/20 09:19:01;;;;;;;3.37;1.87;;;22.80;98.90;;;;;;4965207;28;21161;-55
2023/09/20 09:21:28;;;;;;;3.10;1.93;;;22.80;98.80;;;;;;4963491;28;21370;-59
2023/09/20 09:23:57;;;;;;;2.40;1.60;;;22.80;98.50;;;;;;4967820;28;20460;-56
2023/09/20 09:26:25;;;;;;;5.03;1.80;;;22.80;98.30;;;;;;4961967;28;20489;-55
2023/09/20 09:28:53;;;;;;;2.20;1.87;;;22.80;98.10;;;;;;4964425;28;20461;-54
2023/09/20 09:31:20;;;;;;;2.93;1.97;;;22.80;98.10;;;;;;4964660;28;21333;-55
2023/09/20 09:33:46;;;;;;;2.60;1.67;;;22.80;98.20;;;;;;4964491;28;20971;-54
2023/09/20 09:36:13;;;;;;;7.53;1.70;;;22.80;98.30;;;;;;4967940;28;20456;-56
2023/09/20 09:38:41;;;;;;;5.37;1.30;;;22.80;98.30;;;;;;4970369;28;20475;-57
2023/09/20 09:41:08;;;;;;;2.03;1.50;;;22.80;98.40;;;;;;4972215;28;21503;-55
2023/09/20 09:43:37;;;;;;;3.13;1.30;;;22.80;98.50;;;;;;4969297;28;20480;-57
2023/09/20 09:46:08;;;;;;;3.63;1.60;;;22.80;98.50;;;;;;4966622;28;20471;-57
2023/09/20 09:48:36;;;;;;;9.50;2.20;;;22.80;98.60;;;;;;4968258;28;20468;-58
2023/09/20 09:51:06;;;;;;;2.73;2.00;;;22.80;98.60;;;;;;4967132;28;20467;-59
2023/09/20 09:53:34;;;;;;;4.03;1.83;;;22.80;98.80;;;;;;4966373;28;20475;-57
2023/09/20 09:56:04;;;;;;;2.83;1.60;;;22.80;98.80;;;;;;4965034;28;20523;-57
2023/09/20 09:58:31;;;;;;;4.00;2.23;;;22.80;98.90;;;;;;4963833;28;20467;-56
2023/09/20 10:00:59;;;;;;;3.00;1.60;;;22.80;99.00;;;;;;4970133;28;20471;-56
2023/09/20 10:03:32;;;;;;;2.30;1.77;;;22.80;99.00;;;;;;4971433;28;20488;-55
2023/09/20 10:06:09;;;;;;;6.30;1.53;;;22.80;99.10;;;;;;4968607;28;20566;-56
2023/09/20 10:08:39;;;;;;;6.40;2.03;;;22.80;99.00;;;;;;4966437;28;20456;-56
2023/09/20 10:11:08;;;;;;;3.80;2.13;;;22.80;99.10;;;;;;4967791;28;20460;-56
2023/09/20 10:13:36;;;;;;;2.77;1.60;;;22.80;99.20;;;;;;4965630;28;20468;-57
2023/09/20 10:16:06;;;;;;;2.90;2.00;;;22.80;99.30;;;;;;4959604;28;21043;-59
2023/09/20 10:18:49;;;;;;;2.13;1.40;;;22.80;99.30;;;;;;4965348;28;20460;-63
2023/09/20 10:21:20;;;;;;;1.40;1.27;;;22.80;99.40;;;;;;4967434;28;20456;-60
2023/09/20 10:23:48;;;;;;;3.50;1.40;;;22.90;99.50;;;;;;4969260;28;20475;-65
2023/09/20 10:26:16;;;;;;;2.43;1.30;;;22.90;99.60;;;;;;4951325;28;20464;-56
2023/09/20 10:28:44;;;;;;;4.87;1.50;;;22.90;99.70;;;;;;4970527;28;20464;-58
2023/09/20 10:31:16;;;;;;;1.77;1.53;;;22.90;99.70;;;;;;4967029;28;20464;-59
2023/09/20 10:33:47;;;;;;;2.73;1.40;;;22.80;99.60;;;;;;4969368;28;20460;-56
2023/09/20 10:36:19;;;;;;;2.67;1.50;;;22.90;99.70;;;;;;4967675;28;20864;-57
2023/09/20 10:38:47;;;;;;;2.33;1.27;;;22.90;99.70;;;;;;4969076;28;20452;-58
2023/09/20 10:41:16;;;;;;;1.50;1.30;;;22.90;99.80;;;;;;4967916;28;20483;-60
2023/09/20 10:43:48;;;;;;;4.00;1.50;;;22.90;99.80;;;;;;4968609;28;20475;-57
2023/09/20 10:46:18;;;;;;;4.67;1.50;;;22.90;99.80;;;;;;4970368;28;20491;-57
2023/09/20 10:48:50;;;;;;;1.57;1.30;;;22.90;99.80;;;;;;4967188;28;20464;-55
2023/09/20 10:51:48;;;;;;;1.73;1.30;;;22.90;99.80;;;;;;4968556;28;20475;-54
2023/09/20 10:54:23;;;;;;;1.80;1.33;;;22.90;99.90;;;;;;4967199;28;20484;-54
2023/09/20 10:57:05;;;;;;;2.87;1.50;;;22.90;99.90;;;;;;4969817;28;21079;-55
2023/09/20 10:59:32;;;;;;;1.83;1.10;;;22.90;99.90;;;;;;4968287;28;20967;-56
2023/09/20 11:02:09;;;;;;;2.57;1.00;;;22.90;99.80;;;;;;4968291;28;20461;-58
2023/09/20 11:04:38;;;;;;;2.10;1.47;;;23.00;99.90;;;;;;4969360;28;20550;-56
2023/09/20 11:07:06;;;;;;;1.83;1.20;;;23.00;99.90;;;;;;4962062;28;20471;-60
2023/09/20 11:09:33;;;;;;;2.57;1.20;;;23.00;99.90;;;;;;4967628;28;20461;-58
2023/09/20 11:12:06;;;;;;;1.50;1.07;;;23.00;99.90;;;;;;4968654;28;20468;-58
2023/09/20 11:14:34;;;;;;;1.90;1.40;;;23.00;99.90;;;;;;4965909;28;20892;-62
2023/09/20 11:17:01;;;;;;;2.00;1.40;;;23.10;99.90;;;;;;4970731;28;20459;-58
2023/09/20 11:19:28;;;;;;;2.13;1.40;;;23.10;99.90;;;;;;4966755;28;20469;-60
2023/09/20 11:21:57;;;;;;;2.57;1.50;;;23.10;99.90;;;;;;4966583;28;20464;-56
2023/09/20 11:24:25;;;;;;;1.83;1.10;;;23.20;99.90;;;;;;4965307;28;20468;-57
2023/09/20 11:26:54;;;;;;;3.00;1.70;;;23.20;99.90;;;;;;4963493;28;21501;-59
2023/09/20 11:29:21;;;;;;;3.90;1.60;;;23.20;99.90;;;;;;4966012;28;20515;-59
2023/09/20 11:31:50;;;;;;;3.63;1.47;;;23.20;99.90;;;;;;4970140;28;20450;-58
2023/09/20 11:34:19;;;;;;;1.37;1.27;;;23.20;99.90;;;;;;4969296;28;20559;-57
2023/09/20 11:36:47;;;;;;;2.83;1.40;;;23.20;99.90;;;;;;4959460;28;20473;-60
2023/09/20 11:39:17;;;;;;;2.70;1.30;;;23.20;99.90;;;;;;4963945;28;21023;-58
2023/09/20 11:41:45;;;;;;;2.93;1.43;;;23.20;99.90;;;;;;4969347;28;20457;-57
2023/09/20 11:44:11;;;;;;;2.20;1.67;;;23.20;99.90;;;;;;4967834;28;20491;-55
2023/09/20 11:46:38;;;;;;;2.47;1.60;;;23.30;99.90;;;;;;4966777;28;20465;-59
2023/09/20 11:49:06;;;;;;;1.97;1.27;;;23.30;99.90;;;;;;4966724;28;20458;-60
2023/09/20 11:51:36;;;;;;;3.07;1.77;;;23.30;99.90;;;;;;4963090;28;20462;-56
2023/09/20 11:54:05;;;;;;;2.10;1.30;;;23.30;99.90;;;;;;4965621;28;21156;-58
2023/09/20 11:56:35;;;;;;;2.63;1.60;;;23.30;99.90;;;;;;4965712;28;20588;-61
2023/09/20 11:59:06;;;;;;;2.73;1.40;;;23.30;99.90;;;;;;4962259;28;20471;-56
2023/09/20 12:01:34;;;;;;;1.50;1.20;;;23.40;99.90;;;;;;4964171;28;20512;-56
2023/09/20 12:04:00;;;;;;;2.63;1.40;;;23.40;99.90;;;;;;4967720;28;20519;-61
2023/09/20 12:06:27;;;;;;;2.17;1.40;;;23.40;99.90;;;;;;4964081;28;20469;-59
2023/09/20 12:08:54;;;;;;;1.83;1.20;;;23.40;99.90;;;;;;4963735;28;20457;-56
2023/09/20 12:11:22;;;;;;;2.00;1.17;;;23.40;99.90;;;;;;4967111;28;20474;-58
2023/09/20 12:13:50;;;;;;;4.00;1.30;;;23.40;99.90;;;;;;4965485;28;20806;-59
2023/09/20 12:16:18;;;;;;;1.30;1.00;;;23.50;99.90;;;;;;4964049;28;21454;-59
2023/09/20 12:18:46;;;;;;;7.27;1.47;;;23.50;99.90;;;;;;4965455;28;20880;-56
2023/09/20 12:21:13;;;;;;;1.90;1.57;;;23.50;99.90;;;;;;4962160;28;21045;-59
2023/09/20 12:23:40;;;;;;;1.60;1.30;;;23.50;99.90;;;;;;4965089;28;20481;-53
2023/09/20 12:26:07;;;;;;;2.80;1.53;;;23.50;99.90;;;;;;4967224;28;20461;-58
2023/09/20 12:28:34;;;;;;;3.43;1.67;;;23.50;99.90;;;;;;4964512;28;20462;-62
2023/09/20 12:31:03;;;;;;;2.03;1.57;;;23.50;99.80;;;;;;4965028;28;20466;-63
2023/09/20 12:33:30;;;;;;;2.90;1.40;;;23.60;99.80;;;;;;4965180;28;20805;-62
2023/09/20 12:35:58;;;;;;;1.60;1.47;;;23.60;99.80;;;;;;4957610;28;20463;-60
2023/09/20 12:38:29;;;;;;;2.10;1.20;;;23.60;99.80;;;;;;4960301;28;20458;-61
2023/09/20 12:40:56;;;;;;;1.60;1.10;;;23.60;99.70;;;;;;4963474;28;20464;-61
2023/09/20 12:43:23;;;;;;;1.70;1.10;;;23.60;99.60;;;;;;4964800;28;20482;-59
2023/09/20 12:45:52;;;;;;;2.43;1.50;;;23.60;99.50;;;;;;4965652;28;20463;-59
2023/09/20 12:48:22;;;;;;;2.10;1.17;;;23.60;99.50;;;;;;4968384;28;20457;-60
2023/09/20 12:50:48;;;;;;;1.80;1.33;;;23.60;99.50;;;;;;4959950;28;20467;-55
2023/09/20 12:53:15;;;;;;;1.93;1.30;;;23.60;99.40;;;;;;4960343;28;20466;-58
2023/09/20 12:55:42;;;;;;;2.50;1.63;;;23.60;99.30;;;;;;4960501;28;21042;-61
2023/09/20 12:58:10;;;;;;;2.87;1.50;;;23.60;99.30;;;;;;4962687;28;20467;-57
2023/09/20 13:00:37;;;;;;;2.70;1.13;;;23.60;99.20;;;;;;4961610;28;20459;-56
2023/09/20 13:03:08;;;;;;;3.60;1.50;;;23.70;99.20;;;;;;4963634;28;20499;-56
2023/09/20 13:05:36;;;;;;;4.47;1.73;;;23.70;99.30;;;;;;4965509;28;20461;-57
2023/09/20 13:08:04;;;;;;;2.63;1.50;;;23.70;99.20;;;;;;4969180;28;20466;-53
2023/09/20 13:10:33;;;;;;;2.53;1.37;;;23.70;99.20;;;;;;4969602;28;20852;-51
2023/09/20 13:13:02;;;;;;;2.90;1.70;;;23.70;99.00;;;;;;4956637;28;21270;-51
2023/09/20 13:15:30;;;;;;;2.53;1.57;;;23.80;99.10;;;;;;4967052;28;20597;-51
2023/09/20 13:17:57;;;;;;;1.63;1.10;;;23.80;98.90;;;;;;4969523;28;20458;-55
2023/09/20 13:20:25;;;;;;;2.17;1.27;;;23.80;98.80;;;;;;4968389;28;20469;-53
2023/09/20 13:22:54;;;;;;;1.80;1.27;;;23.80;98.80;;;;;;4971396;28;20600;-54
2023/09/20 13:25:22;;;;;;;3.53;1.63;;;23.80;98.80;;;;;;4969132;28;20493;-57
2023/09/20 13:27:49;;;;;;;2.47;1.40;;;23.80;98.80;;;;;;4966942;28;20515;-54
2023/09/20 13:30:17;;;;;;;3.60;2.10;;;23.80;98.70;;;;;;4956670;28;20465;-56
2023/09/20 13:32:46;;;;;;;2.47;1.60;;;23.80;98.70;;;;;;4973242;28;20463;-55